Time;durP1;ratioP1;P1;durP2;ratioP2;P2;SDS_P1;SDS_P2;PMS_P1;PMS_P2;Temp;Humidity;BMP_temperature;BMP_pressure;BME280_temperature;BME280_humidity;BME280_pressure;Samples;Min_cycle;Max_cycle;Signal;HPM_P1;HPM_P2
2023/03/23 00:01:21;;;;;;;7.88;1.85;;;11.70;99.90;;;;;;5010593;28;20402;-72
2023/03/23 00:03:52;;;;;;;7.18;1.40;;;11.70;99.90;;;;;;4995305;28;20038;-76
2023/03/23 00:06:21;;;;;;;1.90;1.40;;;11.70;99.90;;;;;;5004497;28;20683;-75
2023/03/23 00:08:49;;;;;;;6.03;1.42;;;11.80;99.90;;;;;;4992876;28;20121;-73
2023/03/23 00:11:20;;;;;;;4.38;1.58;;;11.70;99.90;;;;;;4993450;28;20038;-73
2023/03/23 00:13:50;;;;;;;14.10;2.10;;;11.70;99.90;;;;;;4991202;28;20033;-71
2023/03/23 00:16:19;;;;;;;4.47;1.95;;;11.80;99.90;;;;;;5008909;28;20039;-75
2023/03/23 00:18:52;;;;;;;4.90;1.85;;;11.70;99.90;;;;;;4994660;28;20038;-73
2023/03/23 00:21:18;;;;;;;6.20;1.45;;;11.70;99.90;;;;;;5001262;28;20034;-73
2023/03/23 00:23:45;;;;;;;6.47;1.73;;;11.70;99.90;;;;;;5008166;28;20103;-73
2023/03/23 00:26:11;;;;;;;6.50;1.23;;;11.80;99.90;;;;;;5001845;28;20084;-72
2023/03/23 00:28:38;;;;;;;2.45;1.27;;;11.80;99.90;;;;;;4994016;28;20051;-73
2023/03/23 00:31:06;;;;;;;3.40;1.92;;;11.70;99.90;;;;;;4991725;28;20031;-72
2023/03/23 00:33:40;;;;;;;5.18;1.38;;;11.70;99.90;;;;;;4994967;28;20146;-72
2023/03/23 00:36:08;;;;;;;4.53;1.20;;;11.70;99.90;;;;;;4992155;28;20415;-73
2023/03/23 00:38:34;;;;;;;3.10;1.40;;;11.70;99.90;;;;;;4992336;28;20683;-73
2023/03/23 00:41:02;;;;;;;4.15;1.75;;;11.70;99.90;;;;;;4993934;28;20030;-73
2023/03/23 00:43:29;;;;;;;3.60;1.50;;;11.80;99.90;;;;;;4995762;28;20046;-73
2023/03/23 00:45:56;;;;;;;5.65;1.85;;;11.80;99.90;;;;;;4998841;28;20491;-73
2023/03/23 00:48:23;;;;;;;2.80;1.40;;;11.80;99.90;;;;;;4998387;28;20034;-75
2023/03/23 00:50:51;;;;;;;7.13;1.48;;;11.70;99.90;;;;;;4994866;28;20061;-72
2023/03/23 00:53:20;;;;;;;4.80;1.23;;;11.80;99.90;;;;;;4996137;28;20479;-72
2023/03/23 00:55:47;;;;;;;3.90;1.17;;;11.80;99.90;;;;;;5002366;28;20038;-73
2023/03/23 00:58:15;;;;;;;4.95;1.42;;;11.80;99.90;;;;;;4996481;28;20125;-72
2023/03/23 01:00:41;;;;;;;6.25;1.20;;;11.80;99.90;;;;;;4996101;28;20088;-74
2023/03/23 01:03:08;;;;;;;3.90;1.38;;;11.80;99.90;;;;;;4994174;28;20047;-72
2023/03/23 01:05:36;;;;;;;3.38;1.15;;;11.80;99.90;;;;;;4996644;28;20034;-76
2023/03/23 01:08:03;;;;;;;2.17;0.90;;;11.80;99.90;;;;;;5006506;28;20046;-73
2023/03/23 01:10:32;;;;;;;4.93;1.70;;;11.80;99.90;;;;;;5032510;28;20041;-74
2023/03/23 01:12:59;;;;;;;5.57;1.98;;;11.80;99.90;;;;;;4998417;28;20049;-73
2023/03/23 01:15:25;;;;;;;3.38;1.05;;;11.80;99.90;;;;;;5006325;28;20034;-73
2023/03/23 01:17:51;;;;;;;6.30;1.13;;;11.80;99.90;;;;;;5001249;28;20044;-72
2023/03/23 01:20:17;;;;;;;2.25;1.10;;;11.80;99.90;;;;;;5006192;28;20073;-74
2023/03/23 01:22:43;;;;;;;5.15;1.25;;;11.80;99.90;;;;;;5000896;28;20042;-73
2023/03/23 01:25:10;;;;;;;3.00;0.90;;;11.80;99.90;;;;;;5003861;28;20038;-73
2023/03/23 01:27:35;;;;;;;3.92;0.80;;;11.80;99.90;;;;;;5007834;28;20037;-74
2023/03/23 01:30:02;;;;;;;2.78;1.00;;;11.80;99.90;;;;;;5004051;28;20099;-72
2023/03/23 01:32:28;;;;;;;2.92;1.00;;;11.80;99.90;;;;;;5001437;28;20045;-72
2023/03/23 01:34:54;;;;;;;1.15;0.55;;;11.80;99.90;;;;;;5001482;28;20037;-73
2023/03/23 01:37:26;;;;;;;5.43;0.98;;;11.80;99.90;;;;;;5006159;28;20030;-72
2023/03/23 01:39:55;;;;;;;1.50;0.73;;;11.80;99.90;;;;;;5004766;28;20045;-73
2023/03/23 01:42:23;;;;;;;6.25;2.25;;;11.80;99.90;;;;;;5006067;28;20042;-72
2023/03/23 01:44:49;;;;;;;3.95;1.48;;;11.80;99.90;;;;;;5003522;28;20048;-73
2023/03/23 01:47:16;;;;;;;3.83;1.42;;;11.80;99.90;;;;;;5005968;28;20042;-72
2023/03/23 01:49:47;;;;;;;2.30;0.90;;;11.90;99.90;;;;;;5004828;28;20030;-75
2023/03/23 01:52:23;;;;;;;3.72;1.30;;;11.90;99.90;;;;;;5004117;28;20030;-73
2023/03/23 01:54:50;;;;;;;3.28;1.58;;;11.90;99.90;;;;;;5003578;28;22878;-73
2023/03/23 01:57:19;;;;;;;5.60;1.27;;;11.90;99.90;;;;;;5001255;28;20092;-72
2023/03/23 01:59:49;;;;;;;4.80;1.33;;;11.80;99.90;;;;;;5004110;28;20037;-75
2023/03/23 02:02:15;;;;;;;1.40;0.70;;;11.80;99.90;;;;;;5000343;28;20108;-74
2023/03/23 02:04:41;;;;;;;4.40;0.82;;;11.80;99.90;;;;;;5001115;28;20031;-73
2023/03/23 02:07:09;;;;;;;2.08;0.93;;;11.90;99.90;;;;;;4999279;28;20064;-73
2023/03/23 02:09:34;;;;;;;4.60;0.82;;;11.90;99.90;;;;;;4996703;28;20558;-75
2023/03/23 02:12:00;;;;;;;4.93;1.05;;;11.90;99.90;;;;;;4999162;28;20045;-73
2023/03/23 02:14:28;;;;;;;2.85;0.80;;;11.90;99.90;;;;;;4994160;28;20129;-72
2023/03/23 02:17:10;;;;;;;1.98;0.73;;;11.90;99.90;;;;;;5002148;28;20040;-73
2023/03/23 02:20:13;;;;;;;4.60;1.10;;;11.90;99.90;;;;;;4995520;28;20050;-73
2023/03/23 02:22:57;;;;;;;2.85;0.77;;;12.00;99.90;;;;;;5021194;28;20129;-72
2023/03/23 02:25:46;;;;;;;2.53;0.93;;;11.90;99.90;;;;;;5009540;28;20252;-72
2023/03/23 02:29:04;;;;;;;3.47;0.93;;;12.00;99.90;;;;;;4986942;28;20091;-72
2023/03/23 02:31:38;;;;;;;2.13;0.80;;;11.90;99.90;;;;;;4988544;28;20046;-74
2023/03/23 02:34:15;;;;;;;3.35;1.40;;;12.00;99.90;;;;;;5001208;28;20041;-73
2023/03/23 02:36:52;;;;;;;3.40;0.80;;;12.00;99.90;;;;;;4998299;28;20046;-73
2023/03/23 02:39:25;;;;;;;2.10;0.93;;;12.00;99.90;;;;;;4997045;28;20092;-72
2023/03/23 02:41:56;;;;;;;13.25;1.42;;;12.10;99.90;;;;;;4994559;28;20483;-72
2023/03/23 02:44:22;;;;;;;;;;;12.10;99.90;;;;;;4994126;28;20891;-72
2023/03/23 02:46:53;;;;;;;3.97;0.90;;;12.10;99.90;;;;;;4995701;28;19928;-75
2023/03/23 02:49:24;;;;;;;2.83;0.95;;;12.10;99.90;;;;;;4997020;28;20038;-73
2023/03/23 02:51:50;;;;;;;7.63;1.73;;;12.10;99.90;;;;;;4994488;28;20064;-73
2023/03/23 02:54:18;;;;;;;3.58;0.80;;;12.10;99.90;;;;;;4997159;28;20057;-74
2023/03/23 02:56:44;;;;;;;3.30;1.30;;;12.10;99.90;;;;;;4995555;28;20409;-73
2023/03/23 02:59:10;;;;;;;5.80;0.90;;;12.10;99.90;;;;;;5007828;28;20562;-74
2023/03/23 03:01:36;;;;;;;4.47;0.70;;;12.20;99.90;;;;;;4995774;28;20133;-73
2023/03/23 03:04:14;;;;;;;3.17;0.93;;;12.20;99.90;;;;;;4999741;28;20497;-73
2023/03/23 03:07:01;;;;;;;3.13;0.65;;;12.20;99.90;;;;;;4995264;28;20515;-73
2023/03/23 03:09:26;;;;;;;3.05;0.63;;;12.20;99.90;;;;;;4992984;28;20038;-75
2023/03/23 03:11:59;;;;;;;3.15;0.40;;;12.20;99.90;;;;;;4995029;28;20030;-72
2023/03/23 03:14:51;;;;;;;6.88;0.63;;;12.20;99.90;;;;;;4993212;28;20038;-72
2023/03/23 03:17:28;;;;;;;3.53;1.10;;;12.30;99.90;;;;;;4981764;28;20404;-72
2023/03/23 03:20:10;;;;;;;2.55;0.57;;;12.20;99.90;;;;;;4994669;28;20046;-73
2023/03/23 03:22:38;;;;;;;6.97;0.80;;;12.30;99.90;;;;;;4993034;28;20037;-72
2023/03/23 03:25:06;;;;;;;3.55;0.50;;;12.30;99.90;;;;;;4994308;28;20092;-73
2023/03/23 03:27:32;;;;;;;2.88;0.50;;;12.30;99.90;;;;;;4995939;28;20045;-74
2023/03/23 03:30:00;;;;;;;2.15;0.75;;;12.30;99.90;;;;;;4994053;28;20061;-74
2023/03/23 03:32:36;;;;;;;2.30;0.40;;;12.30;99.90;;;;;;4996449;28;20096;-74
2023/03/23 03:35:05;;;;;;;1.70;0.40;;;12.30;99.90;;;;;;4996240;28;20033;-73
2023/03/23 03:37:39;;;;;;;7.40;0.65;;;12.30;99.90;;;;;;4993613;28;20049;-74
2023/03/23 03:40:11;;;;;;;2.38;0.60;;;12.20;99.90;;;;;;4995035;28;20034;-72
2023/03/23 03:42:41;;;;;;;1.73;0.60;;;12.20;99.90;;;;;;4994258;28;20642;-72
2023/03/23 03:45:13;;;;;;;2.45;0.50;;;12.20;99.90;;;;;;4995436;28;20037;-75
2023/03/23 03:47:38;;;;;;;2.13;0.60;;;12.20;99.90;;;;;;4993118;28;20049;-72
2023/03/23 03:50:05;;;;;;;4.95;1.05;;;12.20;99.90;;;;;;4993307;28;20398;-74
2023/03/23 03:52:31;;;;;;;2.40;0.45;;;12.20;99.90;;;;;;4993009;28;20045;-72
2023/03/23 03:54:57;;;;;;;2.70;0.85;;;12.30;99.90;;;;;;5002691;28;20658;-73
2023/03/23 03:57:29;;;;;;;2.58;0.75;;;12.30;99.90;;;;;;4993438;28;20034;-73
2023/03/23 03:59:55;;;;;;;2.42;0.50;;;12.20;99.90;;;;;;5004067;28;20034;-74
2023/03/23 04:02:21;;;;;;;6.75;0.82;;;12.30;99.90;;;;;;4992484;28;20146;-74
2023/03/23 04:04:48;;;;;;;2.28;0.70;;;12.30;99.90;;;;;;4995247;28;20129;-72
2023/03/23 04:07:16;;;;;;;3.88;0.85;;;12.30;99.90;;;;;;4992614;28;20073;-72
2023/03/23 04:09:46;;;;;;;3.20;0.68;;;12.20;99.90;;;;;;5000120;28;20045;-73
2023/03/23 04:12:12;;;;;;;1.70;0.63;;;12.30;99.90;;;;;;4997361;28;20034;-73
2023/03/23 04:14:38;;;;;;;1.77;0.55;;;12.30;99.90;;;;;;4998107;28;20461;-72
2023/03/23 04:17:10;;;;;;;4.75;0.60;;;12.30;99.90;;;;;;5004389;28;20038;-72
2023/03/23 04:19:37;;;;;;;2.45;0.47;;;12.40;99.90;;;;;;5003433;28;20477;-74
2023/03/23 04:22:04;;;;;;;3.42;0.85;;;12.40;99.90;;;;;;5005232;28;20886;-72
2023/03/23 04:24:33;;;;;;;3.75;0.93;;;12.40;99.90;;;;;;5005269;28;20407;-75
2023/03/23 04:26:59;;;;;;;4.05;0.65;;;12.40;99.90;;;;;;5006932;28;20030;-74
2023/03/23 04:29:25;;;;;;;4.65;0.70;;;12.40;99.90;;;;;;5007862;28;20132;-75
2023/03/23 04:31:52;;;;;;;2.67;0.52;;;12.40;99.90;;;;;;5006013;28;20124;-74
2023/03/23 04:34:18;;;;;;;4.72;0.80;;;12.40;99.90;;;;;;5007183;28;20041;-72
2023/03/23 04:36:46;;;;;;;3.10;0.68;;;12.30;99.90;;;;;;5007154;28;20113;-73
2023/03/23 04:39:13;;;;;;;3.55;1.40;;;12.30;99.90;;;;;;5006247;28;20026;-73
2023/03/23 04:41:39;;;;;;;6.72;0.90;;;12.30;99.90;;;;;;5006334;28;20033;-72
2023/03/23 04:44:06;;;;;;;5.30;0.75;;;12.20;99.90;;;;;;4999623;28;20026;-73
2023/03/23 04:46:32;;;;;;;3.30;1.00;;;12.30;99.90;;;;;;5006853;28;20125;-72
2023/03/23 04:48:59;;;;;;;3.05;0.93;;;12.20;99.90;;;;;;5005936;28;20458;-73
2023/03/23 04:51:35;;;;;;;12.02;0.80;;;12.20;99.90;;;;;;5006773;28;20033;-73
2023/03/23 04:54:01;;;;;;;7.10;0.60;;;12.20;99.90;;;;;;5004628;28;20034;-74
2023/03/23 04:56:27;;;;;;;7.32;0.90;;;12.10;99.90;;;;;;5007146;28;20053;-73
2023/03/23 04:58:52;;;;;;;5.53;1.85;;;12.00;99.90;;;;;;5006129;28;20030;-73
2023/03/23 05:01:18;;;;;;;3.42;0.60;;;11.80;99.90;;;;;;5006151;28;20449;-73
2023/03/23 05:03:44;;;;;;;9.68;1.05;;;11.80;99.90;;;;;;5006403;28;20041;-73
2023/03/23 05:06:10;;;;;;;4.35;1.15;;;11.60;99.90;;;;;;5003449;28;20053;-72
2023/03/23 05:08:39;;;;;;;5.70;1.25;;;11.50;99.90;;;;;;5005870;28;20132;-74
2023/03/23 05:11:06;;;;;;;6.65;1.42;;;11.40;99.90;;;;;;5001633;28;20038;-73
2023/03/23 05:13:32;;;;;;;6.68;1.83;;;11.30;99.90;;;;;;5004966;28;20442;-72
2023/03/23 05:16:02;;;;;;;10.85;1.63;;;11.20;99.90;;;;;;5004535;28;20116;-74
2023/03/23 05:18:28;;;;;;;9.13;2.67;;;11.10;99.90;;;;;;5006587;28;20069;-73
2023/03/23 05:20:54;;;;;;;10.95;1.30;;;11.00;99.90;;;;;;4998660;28;20030;-72
2023/03/23 05:23:20;;;;;;;10.70;1.13;;;10.90;99.90;;;;;;5014276;28;20521;-73
2023/03/23 05:25:53;;;;;;;8.07;1.38;;;10.90;99.90;;;;;;5005211;28;20081;-72
2023/03/23 05:28:21;;;;;;;5.00;0.95;;;10.90;99.90;;;;;;5005881;28;20041;-72
2023/03/23 05:30:48;;;;;;;7.05;0.82;;;10.80;99.90;;;;;;5006201;28;20037;-73
2023/03/23 05:33:14;;;;;;;8.68;1.00;;;10.80;99.90;;;;;;5002746;28;20068;-72
2023/03/23 05:35:39;;;;;;;9.48;1.33;;;10.80;99.90;;;;;;5006024;28;20060;-71
2023/03/23 05:38:05;;;;;;;17.73;1.70;;;10.80;99.90;;;;;;5001891;28;20095;-73
2023/03/23 05:40:30;;;;;;;10.05;2.35;;;10.80;99.90;;;;;;5000263;28;20026;-75
2023/03/23 05:42:58;;;;;;;12.02;1.50;;;10.70;99.90;;;;;;5000121;28;20393;-74
2023/03/23 05:45:24;;;;;;;5.97;1.13;;;10.70;99.90;;;;;;5002327;28;20072;-73
2023/03/23 05:47:51;;;;;;;6.65;1.58;;;10.70;99.90;;;;;;5001813;28;20166;-72
2023/03/23 05:50:19;;;;;;;7.35;1.50;;;10.70;99.90;;;;;;5000820;28;20076;-72
2023/03/23 05:52:45;;;;;;;8.40;1.70;;;10.70;99.90;;;;;;5000529;28;20057;-73
2023/03/23 05:55:11;;;;;;;8.45;2.00;;;10.70;99.90;;;;;;4996941;28;20895;-73
2023/03/23 05:57:36;;;;;;;6.00;1.38;;;10.70;99.90;;;;;;4994628;28;20125;-72
2023/03/23 06:00:19;;;;;;;9.68;1.35;;;10.70;99.90;;;;;;5004854;28;20149;-73
2023/03/23 06:02:46;;;;;;;9.18;1.35;;;10.70;99.90;;;;;;4989702;28;20045;-73
2023/03/23 06:05:13;;;;;;;5.45;1.00;;;10.70;99.90;;;;;;5000952;28;20040;-73
2023/03/23 06:07:39;;;;;;;6.95;1.13;;;10.70;99.90;;;;;;5001022;28;20046;-73
2023/03/23 06:10:08;;;;;;;4.25;0.82;;;10.60;99.90;;;;;;5001472;28;20037;-72
2023/03/23 06:12:35;;;;;;;6.18;1.88;;;10.60;99.90;;;;;;5001670;28;20052;-73
2023/03/23 06:15:01;;;;;;;5.53;1.63;;;10.60;99.90;;;;;;5002280;28;20041;-73
2023/03/23 06:17:27;;;;;;;7.00;1.48;;;10.60;99.90;;;;;;5003413;28;20045;-73
2023/03/23 06:19:53;;;;;;;7.53;1.25;;;10.60;99.90;;;;;;4999182;28;20038;-74
2023/03/23 06:22:20;;;;;;;7.32;2.58;;;10.60;99.90;;;;;;4999487;28;20045;-73
2023/03/23 06:24:45;;;;;;;6.70;1.30;;;10.60;99.90;;;;;;4999787;28;20030;-75
2023/03/23 06:27:11;;;;;;;8.50;1.60;;;10.70;99.90;;;;;;5003074;28;20789;-72
2023/03/23 06:29:37;;;;;;;8.30;1.92;;;10.60;99.90;;;;;;5002985;28;20116;-72
2023/03/23 06:32:06;;;;;;;12.98;2.53;;;10.60;99.90;;;;;;4999412;28;20046;-72
2023/03/23 06:34:35;;;;;;;8.68;1.70;;;10.70;99.90;;;;;;5001590;28;20030;-73
2023/03/23 06:37:01;;;;;;;8.48;1.83;;;10.70;99.90;;;;;;4999303;28;20041;-74
2023/03/23 06:39:28;;;;;;;5.88;1.30;;;10.70;99.90;;;;;;5001900;28;22205;-72
2023/03/23 06:41:53;;;;;;;7.63;2.00;;;10.70;99.90;;;;;;5001218;28;20033;-74
2023/03/23 06:44:19;;;;;;;7.28;1.95;;;10.70;99.90;;;;;;5001883;28;20056;-71
2023/03/23 06:46:45;;;;;;;8.90;1.50;;;10.70;99.90;;;;;;4999253;28;20092;-74
2023/03/23 06:49:10;;;;;;;9.02;1.23;;;10.70;99.90;;;;;;5000326;28;20026;-74
2023/03/23 06:51:37;;;;;;;6.40;1.10;;;10.70;99.90;;;;;;5000922;28;20042;-74
2023/03/23 06:54:03;;;;;;;13.82;1.65;;;10.70;99.90;;;;;;5000765;28;20712;-74
2023/03/23 06:56:32;;;;;;;3.08;1.10;;;10.80;99.90;;;;;;4999315;28;20038;-73
2023/03/23 06:58:58;;;;;;;9.38;1.25;;;10.80;99.90;;;;;;4999970;28;20344;-73
2023/03/23 07:01:23;;;;;;;6.47;1.08;;;10.80;99.90;;;;;;5001342;28;20037;-72
2023/03/23 07:03:49;;;;;;;12.35;2.15;;;10.80;99.90;;;;;;4997717;28;20034;-73
2023/03/23 07:06:15;;;;;;;6.15;1.10;;;10.80;99.90;;;;;;5015572;28;20084;-73
2023/03/23 07:08:41;;;;;;;8.52;1.23;;;10.90;99.90;;;;;;5001475;28;20098;-73
2023/03/23 07:11:07;;;;;;;9.43;0.95;;;10.90;99.90;;;;;;4995644;28;20053;-73
2023/03/23 07:13:33;;;;;;;7.43;1.58;;;10.90;99.90;;;;;;5000838;28;20094;-72
2023/03/23 07:16:00;;;;;;;10.48;2.13;;;10.90;99.90;;;;;;4998290;28;20040;-74
2023/03/23 07:18:27;;;;;;;6.05;0.98;;;11.00;99.90;;;;;;5000981;28;20042;-73
2023/03/23 07:20:53;;;;;;;13.60;1.20;;;11.10;99.90;;;;;;4992890;28;20550;-73
2023/03/23 07:23:19;;;;;;;6.97;1.75;;;11.20;99.90;;;;;;5001584;28;20517;-73
2023/03/23 07:25:48;;;;;;;5.80;1.77;;;11.30;99.90;;;;;;5001175;28;20030;-73
2023/03/23 07:28:14;;;;;;;8.75;1.10;;;11.40;99.90;;;;;;4998866;28;20498;-76
2023/03/23 07:30:40;;;;;;;4.85;0.90;;;11.40;99.90;;;;;;4999019;28;20129;-73
2023/03/23 07:33:07;;;;;;;6.45;1.20;;;11.40;99.90;;;;;;4999944;28;20040;-73
2023/03/23 07:35:37;;;;;;;6.97;1.30;;;11.40;99.90;;;;;;5001846;28;20037;-73
2023/03/23 07:38:06;;;;;;;5.43;1.17;;;11.40;99.90;;;;;;4995341;28;20037;-73
2023/03/23 07:40:34;;;;;;;9.10;1.10;;;11.40;99.90;;;;;;5000868;28;20034;-73
2023/03/23 07:43:04;;;;;;;5.88;0.60;;;11.40;99.90;;;;;;4997447;28;20057;-74
2023/03/23 07:45:30;;;;;;;6.90;0.90;;;11.40;99.90;;;;;;4999858;28;20105;-73
2023/03/23 07:47:56;;;;;;;4.03;1.02;;;11.50;99.90;;;;;;4998548;28;20486;-74
2023/03/23 07:50:24;;;;;;;5.72;1.40;;;11.50;99.90;;;;;;5004632;28;20038;-75
2023/03/23 07:52:50;;;;;;;7.47;1.02;;;11.60;99.90;;;;;;5001864;28;20422;-72
2023/03/23 07:55:18;;;;;;;8.93;1.92;;;11.60;99.90;;;;;;5003873;28;20045;-74
2023/03/23 07:57:46;;;;;;;4.63;0.80;;;11.60;99.90;;;;;;5005386;28;20037;-73
2023/03/23 08:00:15;;;;;;;6.82;0.90;;;11.70;99.90;;;;;;5004859;28;20050;-75
2023/03/23 08:02:42;;;;;;;10.18;1.67;;;11.70;99.90;;;;;;5002121;28;20064;-72
2023/03/23 08:05:08;;;;;;;4.35;0.80;;;11.70;99.90;;;;;;5004601;28;20030;-73
2023/03/23 08:07:34;;;;;;;5.13;0.93;;;11.70;99.90;;;;;;5004007;28;20131;-74
2023/03/23 08:10:00;;;;;;;4.72;0.90;;;11.70;99.90;;;;;;4999616;28;20520;-73
2023/03/23 08:12:26;;;;;;;8.25;1.08;;;11.80;99.90;;;;;;5003750;28;20046;-73
2023/03/23 08:14:53;;;;;;;7.97;0.90;;;11.90;99.90;;;;;;5005226;28;20049;-73
2023/03/23 08:17:19;;;;;;;4.15;1.23;;;12.00;99.90;;;;;;5001248;28;20064;-74
2023/03/23 08:19:45;;;;;;;10.00;1.30;;;12.10;99.90;;;;;;5000351;28;20038;-72
2023/03/23 08:22:11;;;;;;;7.82;1.55;;;12.10;99.90;;;;;;5002745;28;20407;-73
2023/03/23 08:24:40;;;;;;;5.78;1.10;;;12.10;99.90;;;;;;5001326;28;20038;-73
2023/03/23 08:27:06;;;;;;;4.93;0.95;;;12.20;99.90;;;;;;5000462;28;20137;-74
2023/03/23 08:29:32;;;;;;;4.95;1.00;;;12.30;99.90;;;;;;5005978;28;20125;-74
2023/03/23 08:31:58;;;;;;;8.50;0.95;;;12.50;99.90;;;;;;5001409;28;20114;-73
2023/03/23 08:34:24;;;;;;;8.27;2.00;;;12.60;99.90;;;;;;5001862;28;20042;-74
2023/03/23 08:36:51;;;;;;;7.68;1.08;;;12.50;99.90;;;;;;5004335;28;20038;-73
2023/03/23 08:39:17;;;;;;;8.18;1.10;;;12.50;99.90;;;;;;5002917;28;20026;-72
2023/03/23 08:41:44;;;;;;;8.70;1.13;;;12.60;99.90;;;;;;5004071;28;20084;-74
2023/03/23 08:44:10;;;;;;;6.63;1.10;;;12.80;99.90;;;;;;5002219;28;20030;-73
2023/03/23 08:46:36;;;;;;;9.57;1.88;;;12.80;99.90;;;;;;5004334;28;20095;-74
2023/03/23 08:49:01;;;;;;;11.20;1.95;;;12.90;99.90;;;;;;5001703;28;20034;-73
2023/03/23 08:51:27;;;;;;;8.02;1.63;;;12.80;99.90;;;;;;5001992;28;20037;-72
2023/03/23 08:53:54;;;;;;;7.97;1.05;;;12.90;99.90;;;;;;5003183;28;20045;-72
2023/03/23 08:56:20;;;;;;;6.45;1.13;;;12.90;99.90;;;;;;5004014;28;20030;-71
2023/03/23 08:58:46;;;;;;;5.88;0.98;;;13.00;99.90;;;;;;5002030;28;20034;-74
2023/03/23 09:01:11;;;;;;;7.45;1.27;;;13.00;99.90;;;;;;5001746;28;20030;-72
2023/03/23 09:03:38;;;;;;;12.27;1.63;;;13.10;99.90;;;;;;5003728;28;20057;-73
2023/03/23 09:06:06;;;;;;;4.70;0.90;;;13.20;99.90;;;;;;5000855;28;20033;-72
2023/03/23 09:08:33;;;;;;;11.02;1.35;;;13.30;99.90;;;;;;5003595;28;20391;-74
2023/03/23 09:11:03;;;;;;;10.27;1.20;;;13.30;99.90;;;;;;5002263;28;20034;-74
2023/03/23 09:13:29;;;;;;;;;;;13.40;99.90;;;;;;5004609;28;20128;-74
2023/03/23 09:15:55;;;;;;;13.10;1.60;;;13.50;99.90;;;;;;5001020;28;20467;-73
2023/03/23 09:18:21;;;;;;;7.22;1.08;;;13.50;99.90;;;;;;5003991;28;20048;-74
2023/03/23 09:20:49;;;;;;;10.70;2.05;;;13.40;99.90;;;;;;5003576;28;20663;-74
2023/03/23 09:23:15;;;;;;;7.40;1.10;;;13.50;99.90;;;;;;5003000;28;20045;-73
2023/03/23 09:25:41;;;;;;;11.95;1.60;;;13.50;99.90;;;;;;5002856;28;20066;-73
2023/03/23 09:28:06;;;;;;;7.78;1.20;;;13.50;99.90;;;;;;5003651;28;20098;-72
2023/03/23 09:30:35;;;;;;;11.90;1.52;;;13.60;99.90;;;;;;4999876;28;20125;-75
2023/03/23 09:33:02;;;;;;;7.18;1.67;;;13.80;99.90;;;;;;4999893;28;20037;-73
2023/03/23 09:35:29;;;;;;;10.13;1.70;;;14.00;99.90;;;;;;5005318;28;20042;-73
2023/03/23 09:37:55;;;;;;;5.43;1.15;;;14.10;99.90;;;;;;5000947;28;20038;-73
2023/03/23 09:40:30;;;;;;;10.32;1.48;;;14.10;99.90;;;;;;5000696;28;20065;-74
2023/03/23 09:43:16;;;;;;;11.45;1.25;;;14.20;99.90;;;;;;5000319;28;20034;-72
2023/03/23 09:46:07;;;;;;;8.13;1.10;;;14.20;99.90;;;;;;5015486;28;20050;-74
2023/03/23 09:48:39;;;;;;;13.57;1.48;;;14.30;99.90;;;;;;5001375;28;20109;-71
2023/03/23 09:51:18;;;;;;;12.75;1.77;;;14.30;99.90;;;;;;4999087;28;20041;-73
2023/03/23 09:53:48;;;;;;;4.20;0.85;;;14.20;99.90;;;;;;4998057;28;20125;-72
2023/03/23 09:56:16;;;;;;;6.03;1.15;;;14.20;99.90;;;;;;5001894;28;20044;-74
2023/03/23 09:58:58;;;;;;;8.93;1.95;;;14.20;99.90;;;;;;5000567;28;20115;-73
2023/03/23 10:01:28;;;;;;;16.63;2.65;;;14.40;99.90;;;;;;5002157;28;20441;-74
2023/03/23 10:04:23;;;;;;;3.35;0.90;;;14.40;99.90;;;;;;4998929;28;20038;-75
2023/03/23 10:06:50;;;;;;;5.85;0.80;;;14.30;99.90;;;;;;5000509;28;20104;-76
2023/03/23 10:09:19;;;;;;;6.22;0.90;;;14.20;99.90;;;;;;5003169;28;20045;-73
2023/03/23 10:11:59;;;;;;;11.73;1.40;;;14.10;99.90;;;;;;5000336;28;20046;-72
2023/03/23 10:14:47;;;;;;;11.70;2.28;;;14.20;99.90;;;;;;4997298;28;20121;-72
2023/03/23 10:17:28;;;;;;;5.18;1.23;;;14.30;99.90;;;;;;5000451;28;20529;-73
2023/03/23 10:20:12;;;;;;;12.18;1.73;;;14.50;99.90;;;;;;4999723;28;20030;-72
2023/03/23 10:23:12;;;;;;;12.60;2.55;;;14.70;99.90;;;;;;4998859;28;20046;-73
2023/03/23 10:25:49;;;;;;;11.20;2.05;;;14.90;99.90;;;;;;5001370;28;20824;-73
2023/03/23 10:28:36;;;;;;;8.52;1.38;;;15.00;99.90;;;;;;5000597;28;20061;-72
2023/03/23 10:31:04;;;;;;;8.60;2.10;;;14.90;99.90;;;;;;4999580;28;20048;-73
2023/03/23 10:33:37;;;;;;;7.53;1.48;;;14.80;99.90;;;;;;5003137;28;20045;-73
2023/03/23 10:36:07;;;;;;;7.10;1.02;;;14.80;99.90;;;;;;5001450;28;20038;-72
2023/03/23 10:38:39;;;;;;;5.03;1.17;;;14.90;99.90;;;;;;5000633;28;20049;-72
2023/03/23 10:41:17;;;;;;;13.15;1.45;;;14.80;99.90;;;;;;5001010;28;20380;-73
2023/03/23 10:43:44;;;;;;;5.45;0.70;;;14.80;99.90;;;;;;5001625;28;20034;-72
2023/03/23 10:46:37;;;;;;;7.57;1.50;;;14.80;99.90;;;;;;5001105;28;20093;-72
2023/03/23 10:49:09;;;;;;;6.55;1.35;;;14.90;99.90;;;;;;4998337;28;20121;-73
2023/03/23 10:51:37;;;;;;;4.22;1.27;;;15.00;99.90;;;;;;5000953;28;20045;-72
2023/03/23 10:54:09;;;;;;;11.75;1.15;;;15.00;99.90;;;;;;5015645;28;20026;-72
2023/03/23 10:56:37;;;;;;;11.18;1.33;;;15.00;99.90;;;;;;5001003;28;20085;-76
2023/03/23 10:59:26;;;;;;;11.75;1.58;;;15.00;99.90;;;;;;5000390;28;20029;-73
2023/03/23 11:01:58;;;;;;;7.30;1.48;;;14.80;99.90;;;;;;4997687;28;20037;-72
2023/03/23 11:04:23;;;;;;;8.20;2.55;;;14.70;99.90;;;;;;4999473;28;20041;-72
2023/03/23 11:06:52;;;;;;;7.82;1.15;;;14.70;99.90;;;;;;5003857;28;20037;-75
2023/03/23 11:09:21;;;;;;;7.35;1.23;;;14.80;99.90;;;;;;4995970;28;20040;-72
2023/03/23 11:11:52;;;;;;;14.50;1.15;;;14.70;99.90;;;;;;5000670;28;20048;-73
2023/03/23 11:14:27;;;;;;;6.60;1.25;;;14.60;99.90;;;;;;4999597;28;20036;-72
2023/03/23 11:16:55;;;;;;;7.13;1.10;;;14.80;99.90;;;;;;4998806;28;20026;-72
2023/03/23 11:19:31;;;;;;;4.38;1.20;;;14.80;99.90;;;;;;4999162;28;20522;-72
2023/03/23 11:22:04;;;;;;;7.72;1.27;;;14.80;99.90;;;;;;4998176;28;20168;-73
2023/03/23 11:24:36;;;;;;;13.02;2.00;;;14.90;99.90;;;;;;4999703;28;20069;-72
2023/03/23 11:27:06;;;;;;;6.28;1.33;;;15.00;99.90;;;;;;4999481;28;20041;-72
2023/03/23 11:29:33;;;;;;;8.50;1.15;;;15.10;99.90;;;;;;5000808;28;20033;-70
2023/03/23 11:32:07;;;;;;;7.53;1.10;;;15.20;99.90;;;;;;4994200;28;20111;-72
2023/03/23 11:34:35;;;;;;;5.35;1.00;;;15.10;99.90;;;;;;4996453;28;20092;-72
2023/03/23 11:37:09;;;;;;;11.05;0.95;;;15.10;99.90;;;;;;4997381;28;20046;-75
2023/03/23 11:39:47;;;;;;;6.13;1.08;;;15.00;99.90;;;;;;4996564;28;20044;-72
2023/03/23 11:42:22;;;;;;;8.27;1.08;;;15.00;99.90;;;;;;4995946;28;20038;-72
2023/03/23 11:44:48;;;;;;;21.05;2.40;;;14.90;99.90;;;;;;4992657;28;20992;-73
2023/03/23 11:47:35;;;;;;;7.68;1.13;;;14.80;99.90;;;;;;4995763;28;20030;-75
2023/03/23 11:50:05;;;;;;;13.93;1.85;;;14.60;99.90;;;;;;4994790;28;20112;-72
2023/03/23 11:52:58;;;;;;;13.75;1.40;;;14.30;99.90;;;;;;5010985;28;20045;-72
2023/03/23 11:55:29;;;;;;;7.13;1.20;;;14.10;99.90;;;;;;4994701;28;20532;-73
2023/03/23 11:57:59;;;;;;;8.23;1.27;;;13.80;99.90;;;;;;4995146;28;20478;-74
2023/03/23 12:00:25;;;;;;;8.65;1.40;;;13.70;99.90;;;;;;4998794;28;20870;-73
2023/03/23 12:03:13;;;;;;;10.27;2.13;;;13.60;99.90;;;;;;4999334;28;20041;-73
2023/03/23 12:05:53;;;;;;;7.88;1.60;;;13.70;99.90;;;;;;4997782;28;20376;-72
2023/03/23 12:08:58;;;;;;;10.65;1.65;;;13.60;99.90;;;;;;4997952;28;20104;-72
2023/03/23 12:11:45;;;;;;;12.90;1.85;;;13.70;99.90;;;;;;4999192;28;20040;-72
2023/03/23 12:14:17;;;;;;;7.80;1.10;;;13.90;99.90;;;;;;4999704;28;20499;-72
2023/03/23 12:17:02;;;;;;;6.50;1.23;;;14.00;99.90;;;;;;5000384;28;20208;-71
2023/03/23 12:19:43;;;;;;;11.35;1.73;;;14.40;99.90;;;;;;5000133;28;20038;-74
2023/03/23 12:22:24;;;;;;;10.43;1.60;;;14.70;99.90;;;;;;4997074;28;20041;-72
2023/03/23 12:25:08;;;;;;;7.38;0.75;;;14.80;99.90;;;;;;4998642;28;20034;-76
2023/03/23 12:27:56;;;;;;;8.05;1.50;;;14.90;99.90;;;;;;5000985;28;20125;-72
2023/03/23 12:30:53;;;;;;;9.57;2.08;;;15.10;99.90;;;;;;4997050;28;20033;-72
2023/03/23 12:33:36;;;;;;;6.63;1.65;;;15.20;99.90;;;;;;4999377;28;20116;-72
2023/03/23 12:36:17;;;;;;;6.07;0.63;;;15.00;99.90;;;;;;4999469;28;20037;-73
2023/03/23 12:39:09;;;;;;;8.25;1.40;;;15.00;99.90;;;;;;5003152;28;20033;-72
2023/03/23 12:42:16;;;;;;;5.00;0.75;;;14.90;99.90;;;;;;5002408;28;20832;-73
2023/03/23 12:44:56;;;;;;;3.08;0.50;;;15.00;99.90;;;;;;5002923;28;20132;-72
2023/03/23 12:47:44;;;;;;;9.15;1.20;;;15.00;99.90;;;;;;5003031;28;20107;-71
2023/03/23 12:50:28;;;;;;;8.10;1.02;;;15.10;99.90;;;;;;5000337;28;20517;-73
2023/03/23 12:53:14;;;;;;;5.43;0.77;;;15.20;99.90;;;;;;5002321;28;20030;-72
2023/03/23 12:55:50;;;;;;;8.30;1.30;;;15.50;99.90;;;;;;5003174;28;20784;-72
2023/03/23 12:58:25;;;;;;;7.30;1.58;;;15.60;99.90;;;;;;4999769;28;20105;-72
2023/03/23 13:00:54;;;;;;;4.20;0.65;;;15.50;99.90;;;;;;4997506;28;20064;-74
2023/03/23 13:03:27;;;;;;;3.45;1.30;;;15.50;99.90;;;;;;5004960;28;20085;-73